createdAt,value
2017-09-10T00:01:50.881Z,26.03
2017-09-10T00:04:18.709Z,29.70
2017-09-10T00:06:46.532Z,36.07
2017-09-10T00:09:14.336Z,24.93
2017-09-10T00:11:42.165Z,28.37
2017-09-10T00:14:09.986Z,27.40
2017-09-10T00:16:37.796Z,33.27
2017-09-10T00:19:05.612Z,27.80
2017-09-10T00:21:33.429Z,43.20
2017-09-10T00:24:01.241Z,36.37
2017-09-10T00:26:29.093Z,38.10
2017-09-10T00:28:56.913Z,37.60
2017-09-10T00:31:25.246Z,36.97
2017-09-10T00:33:53.075Z,38.10
2017-09-10T00:36:20.920Z,28.57
2017-09-10T00:38:48.745Z,37.27
2017-09-10T00:41:16.608Z,34.53
2017-09-10T00:43:44.436Z,41.10
2017-09-10T00:46:12.253Z,41.20
2017-09-10T00:48:40.068Z,50.77
2017-09-10T00:51:07.867Z,32.77
2017-09-10T00:53:35.684Z,34.37
2017-09-10T00:56:03.506Z,33.60
2017-09-10T00:58:31.384Z,39.13
2017-09-10T01:00:59.228Z,39.93
2017-09-10T01:03:27.061Z,49.23
2017-09-10T01:05:54.877Z,41.60
2017-09-10T01:08:22.699Z,44.50
2017-09-10T01:10:50.529Z,48.47
2017-09-10T01:13:18.365Z,46.70
2017-09-10T01:15:46.184Z,48.30
2017-09-10T01:18:14.025Z,49.90
2017-09-10T01:20:41.844Z,49.73
2017-09-10T01:23:09.664Z,53.00
2017-09-10T01:25:37.516Z,54.40
2017-09-10T01:28:05.365Z,53.13
2017-09-10T01:30:33.171Z,53.03
2017-09-10T01:33:01.015Z,46.90
2017-09-10T01:35:28.816Z,49.87
2017-09-10T01:37:57.054Z,48.40
2017-09-10T01:40:24.893Z,66.20
2017-09-10T01:42:52.709Z,61.57
2017-09-10T01:45:20.525Z,73.93
2017-09-10T01:47:48.336Z,53.10
2017-09-10T01:50:16.145Z,60.37
2017-09-10T01:52:43.979Z,52.10
2017-09-10T01:55:11.804Z,58.50
2017-09-10T01:57:39.615Z,57.80
2017-09-10T02:00:07.438Z,56.83
2017-09-10T02:02:35.259Z,54.87
2017-09-10T02:05:03.090Z,49.70
2017-09-10T02:07:30.896Z,46.60
2017-09-10T02:09:58.716Z,51.07
2017-09-10T02:12:26.556Z,55.67
2017-09-10T02:14:54.396Z,51.87
2017-09-10T02:17:22.200Z,49.60
2017-09-10T02:19:50.009Z,55.83
2017-09-10T02:22:17.857Z,57.77
2017-09-10T02:24:45.688Z,51.80
2017-09-10T02:27:14.303Z,51.50
2017-09-10T02:29:42.129Z,48.60
2017-09-10T02:32:09.952Z,59.80
2017-09-10T02:34:37.759Z,46.90
2017-09-10T02:37:05.585Z,44.03
2017-09-10T02:39:33.418Z,47.93
2017-09-10T02:42:01.264Z,53.80
2017-09-10T02:44:29.100Z,48.57
2017-09-10T02:46:56.922Z,54.13
2017-09-10T02:49:24.752Z,53.47
2017-09-10T02:51:52.577Z,54.97
2017-09-10T02:54:20.408Z,44.87
2017-09-10T02:56:48.233Z,52.03
2017-09-10T02:59:16.149Z,46.40
2017-09-10T03:01:43.986Z,46.33
2017-09-10T03:04:11.819Z,57.23
2017-09-10T03:06:39.645Z,48.70
2017-09-10T03:09:07.465Z,52.20
2017-09-10T03:11:35.292Z,57.40
2017-09-10T03:14:03.096Z,51.27
2017-09-10T03:16:30.922Z,61.20
2017-09-10T03:18:58.737Z,48.47
2017-09-10T03:21:26.573Z,56.10
2017-09-10T03:23:54.375Z,52.93
2017-09-10T03:26:22.190Z,58.53
2017-09-10T03:28:49.996Z,45.70
2017-09-10T03:31:17.813Z,45.80
2017-09-10T03:33:45.628Z,46.93
2017-09-10T03:36:13.480Z,48.00
2017-09-10T03:38:41.309Z,52.37
2017-09-10T03:41:09.124Z,49.37
2017-09-10T03:43:36.943Z,49.07
2017-09-10T03:46:04.765Z,49.27
2017-09-10T03:48:32.580Z,50.23
2017-09-10T03:51:00.435Z,50.50
2017-09-10T03:53:28.229Z,50.33
2017-09-10T03:55:56.052Z,50.50
2017-09-10T03:58:23.876Z,57.83
2017-09-10T04:00:51.686Z,53.93
2017-09-10T04:03:19.507Z,47.83
2017-09-10T04:05:47.356Z,52.40
2017-09-10T04:08:15.164Z,57.70
2017-09-10T04:10:42.992Z,54.40
2017-09-10T04:13:10.808Z,48.37
2017-09-10T04:15:38.615Z,62.90
2017-09-10T04:18:06.435Z,58.53
2017-09-10T04:20:34.282Z,51.97
2017-09-10T04:23:02.105Z,59.93
2017-09-10T04:25:29.936Z,54.13
2017-09-10T04:27:57.765Z,65.93
2017-09-10T04:30:25.586Z,54.13
2017-09-10T04:32:53.404Z,60.23
2017-09-10T04:35:21.214Z,58.17
2017-09-10T04:37:49.020Z,63.03
2017-09-10T04:40:16.844Z,74.73
2017-09-10T04:42:44.646Z,62.50
2017-09-10T04:45:12.473Z,75.23
2017-09-10T04:47:40.281Z,60.20
2017-09-10T04:50:08.104Z,63.67
2017-09-10T04:52:35.920Z,59.83
2017-09-10T04:55:03.765Z,66.50
2017-09-10T04:57:31.588Z,60.60
2017-09-10T04:59:59.440Z,61.67
2017-09-10T05:02:27.273Z,64.00
2017-09-10T05:04:55.080Z,60.17
2017-09-10T05:07:22.901Z,69.80
2017-09-10T05:09:50.797Z,71.40
2017-09-10T05:12:18.605Z,66.03
2017-09-10T05:14:46.424Z,80.20
2017-09-10T05:17:14.244Z,60.00
2017-09-10T05:19:42.057Z,73.50
2017-09-10T05:22:09.900Z,74.13
2017-09-10T05:24:37.720Z,62.53
2017-09-10T05:27:05.556Z,71.70
2017-09-10T05:29:33.388Z,62.83
2017-09-10T05:32:01.218Z,69.50
2017-09-10T05:34:29.060Z,74.90
2017-09-10T05:36:56.896Z,68.93
2017-09-10T05:39:24.725Z,78.13
2017-09-10T05:41:52.534Z,71.07
2017-09-10T05:44:20.356Z,70.83
2017-09-10T05:46:48.289Z,91.50
2017-09-10T05:49:16.100Z,68.47
2017-09-10T05:51:44.049Z,69.03
2017-09-10T05:54:11.861Z,72.83
2017-09-10T05:56:39.701Z,71.90
2017-09-10T05:59:07.506Z,84.33
2017-09-10T06:01:35.313Z,75.73
2017-09-10T06:04:03.172Z,72.43
2017-09-10T06:06:30.992Z,70.90
2017-09-10T06:08:58.807Z,73.67
2017-09-10T06:11:26.636Z,74.17
2017-09-10T06:13:54.506Z,85.07
2017-09-10T06:16:22.335Z,77.23
2017-09-10T06:18:50.161Z,78.20
2017-09-10T06:21:17.968Z,68.17
2017-09-10T06:23:45.801Z,72.43
2017-09-10T06:26:13.633Z,67.43
2017-09-10T06:28:41.481Z,65.43
2017-09-10T06:31:09.284Z,61.43
2017-09-10T06:33:37.094Z,65.27
2017-09-10T06:36:05.028Z,62.23
2017-09-10T06:38:32.836Z,57.50
2017-09-10T06:41:00.661Z,57.03
2017-09-10T06:43:28.637Z,55.87
2017-09-10T06:45:56.492Z,49.60
2017-09-10T06:48:24.328Z,55.17
2017-09-10T06:50:52.420Z,53.50
2017-09-10T06:53:20.249Z,50.23
2017-09-10T06:55:48.093Z,49.77
2017-09-10T06:58:15.940Z,49.80
2017-09-10T07:00:43.896Z,55.40
2017-09-10T07:03:11.716Z,43.97
2017-09-10T07:05:39.537Z,46.27
2017-09-10T07:08:07.352Z,47.93
2017-09-10T07:10:35.184Z,48.40
2017-09-10T07:13:02.973Z,42.10
2017-09-10T07:15:30.777Z,49.33
2017-09-10T07:17:58.581Z,50.30
2017-09-10T07:20:26.408Z,52.10
2017-09-10T07:22:54.218Z,55.37
2017-09-10T07:25:22.045Z,55.10
2017-09-10T07:27:49.856Z,57.37
2017-09-10T07:30:17.693Z,62.83
2017-09-10T07:32:45.517Z,55.20
2017-09-10T07:35:13.360Z,55.13
2017-09-10T07:37:41.165Z,62.83
2017-09-10T07:40:08.969Z,88.27
2017-09-10T07:42:36.789Z,75.53
2017-09-10T07:45:04.626Z,79.57
2017-09-10T07:47:32.420Z,87.53
2017-09-10T07:50:00.269Z,84.93
2017-09-10T07:52:28.068Z,95.53
2017-09-10T07:54:55.868Z,83.47
2017-09-10T07:57:23.681Z,68.63
2017-09-10T07:59:51.485Z,80.97
2017-09-10T08:02:19.441Z,85.37
2017-09-10T08:04:47.294Z,73.60
2017-09-10T08:07:15.125Z,61.43
2017-09-10T08:09:42.945Z,58.67
2017-09-10T08:12:10.755Z,74.70
2017-09-10T08:14:38.560Z,62.93
2017-09-10T08:17:06.365Z,61.93
2017-09-10T08:19:34.205Z,58.63
2017-09-10T08:22:02.014Z,57.00
2017-09-10T08:24:29.836Z,43.27
2017-09-10T08:26:57.651Z,47.60
2017-09-10T08:29:25.465Z,47.73
2017-09-10T08:31:53.269Z,45.30
2017-09-10T08:34:21.071Z,39.37
2017-09-10T08:36:49.042Z,44.63
2017-09-10T08:39:16.868Z,36.37
2017-09-10T08:41:44.680Z,40.10
2017-09-10T08:44:12.497Z,34.50
2017-09-10T08:46:40.320Z,30.50
2017-09-10T08:49:08.134Z,30.60
2017-09-10T08:51:35.948Z,25.63
2017-09-10T08:54:03.752Z,24.33
2017-09-10T08:56:31.588Z,21.20
2017-09-10T08:58:59.410Z,21.90
2017-09-10T09:01:27.252Z,25.00
2017-09-10T09:03:55.073Z,23.57
2017-09-10T09:06:22.893Z,32.73
2017-09-10T09:08:50.756Z,24.27
2017-09-10T09:11:18.561Z,18.57
2017-09-10T09:13:46.352Z,23.00
2017-09-10T09:16:14.182Z,15.87
2017-09-10T09:18:41.984Z,31.20
2017-09-10T09:21:09.809Z,27.13
2017-09-10T09:23:37.618Z,26.27
2017-09-10T09:26:05.427Z,28.13
2017-09-10T09:28:33.232Z,31.90
2017-09-10T09:31:01.057Z,26.87
2017-09-10T09:33:28.860Z,26.60
2017-09-10T09:35:56.668Z,23.50
2017-09-10T09:38:24.459Z,27.60
2017-09-10T09:40:52.282Z,19.17
2017-09-10T09:43:20.086Z,24.13
2017-09-10T09:45:47.896Z,22.43
2017-09-10T09:48:15.724Z,26.03
2017-09-10T09:50:43.538Z,22.60
2017-09-10T09:53:11.409Z,23.10
2017-09-10T09:55:39.229Z,21.10
2017-09-10T09:58:07.052Z,19.80
2017-09-10T10:00:34.879Z,19.13
2017-09-10T10:03:02.713Z,20.60
2017-09-10T10:05:30.529Z,19.70
2017-09-10T10:07:58.364Z,22.03
2017-09-10T10:10:26.217Z,16.80
2017-09-10T10:12:54.053Z,14.53
2017-09-10T10:15:21.855Z,18.13
2017-09-10T10:17:49.668Z,21.87
2017-09-10T10:20:17.489Z,21.10
2017-09-10T10:22:45.388Z,21.50
2017-09-10T10:25:13.196Z,23.10
2017-09-10T10:27:41.016Z,16.70
2017-09-10T10:30:08.840Z,18.80
2017-09-10T10:32:36.675Z,22.83
2017-09-10T10:35:04.514Z,18.00
2017-09-10T10:37:39.513Z,17.70
2017-09-10T10:40:07.346Z,21.00
2017-09-10T10:42:34.147Z,16.90
2017-09-10T10:45:00.184Z,23.40
2017-09-10T10:47:26.961Z,16.00
2017-09-10T10:49:53.009Z,18.73
2017-09-10T10:52:19.811Z,14.20
2017-09-10T10:54:45.870Z,19.80
2017-09-10T10:57:11.905Z,13.13
2017-09-10T10:59:39.710Z,13.67
2017-09-10T11:02:07.521Z,16.10
2017-09-10T11:04:35.349Z,15.87
2017-09-10T11:07:03.180Z,14.20
2017-09-10T11:09:31.000Z,23.87
2017-09-10T11:11:58.805Z,16.13
2017-09-10T11:14:26.640Z,18.40
2017-09-10T11:16:54.449Z,23.60
2017-09-10T11:19:22.260Z,27.33
2017-09-10T11:21:50.070Z,17.13
2017-09-10T11:24:17.913Z,18.17
2017-09-10T11:26:45.729Z,13.90
2017-09-10T11:29:13.566Z,17.07
2017-09-10T11:31:41.390Z,15.20
2017-09-10T11:34:09.231Z,18.10
2017-09-10T11:36:37.057Z,18.67
2017-09-10T11:39:04.876Z,15.60
2017-09-10T11:41:32.759Z,14.90
2017-09-10T11:44:00.601Z,18.53
2017-09-10T11:46:28.454Z,15.47
2017-09-10T11:48:56.285Z,19.33
2017-09-10T11:51:24.177Z,15.47
2017-09-10T11:53:51.997Z,14.10
2017-09-10T11:56:19.813Z,13.40
2017-09-10T11:58:47.645Z,13.03
2017-09-10T12:01:15.475Z,13.97
2017-09-10T12:03:43.334Z,13.47
2017-09-10T12:06:11.155Z,14.10
2017-09-10T12:08:38.988Z,15.00
2017-09-10T12:11:06.793Z,7.47
2017-09-10T12:13:34.651Z,13.50
2017-09-10T12:16:02.501Z,10.67
2017-09-10T12:18:30.327Z,10.67
2017-09-10T12:20:58.157Z,7.53
2017-09-10T12:23:25.960Z,18.10
2017-09-10T12:25:53.762Z,10.03
2017-09-10T12:28:21.580Z,9.73
2017-09-10T12:30:49.396Z,9.63
2017-09-10T12:33:17.243Z,10.23
2017-09-10T12:35:45.050Z,9.27
2017-09-10T12:38:13.232Z,11.80
2017-09-10T12:40:41.036Z,9.07
2017-09-10T12:43:08.858Z,9.10
2017-09-10T12:45:36.662Z,8.50
2017-09-10T12:48:04.465Z,9.60
2017-09-10T12:50:32.268Z,9.10
2017-09-10T12:53:00.088Z,8.67
2017-09-10T12:55:28.043Z,11.90
2017-09-10T12:57:55.857Z,10.00
2017-09-10T13:00:23.673Z,10.67
2017-09-10T13:02:51.495Z,11.27
2017-09-10T13:05:19.320Z,8.30
2017-09-10T13:07:47.133Z,12.00
2017-09-10T13:10:14.940Z,12.40
2017-09-10T13:12:42.753Z,11.47
2017-09-10T13:15:10.568Z,10.43
2017-09-10T13:17:38.419Z,8.17
2017-09-10T13:20:06.245Z,10.07
2017-09-10T13:22:34.055Z,12.83
2017-09-10T13:25:01.880Z,7.50
2017-09-10T13:27:29.696Z,10.50
2017-09-10T13:29:57.506Z,9.17
2017-09-10T13:32:25.338Z,10.10
2017-09-10T13:34:53.156Z,8.60
2017-09-10T13:37:20.982Z,8.20
2017-09-10T13:39:48.810Z,7.70
2017-09-10T13:42:16.638Z,10.07
2017-09-10T13:44:44.464Z,13.37
2017-09-10T13:47:12.273Z,8.80
2017-09-10T13:49:40.074Z,10.27
2017-09-10T13:52:08.149Z,9.40
2017-09-10T13:54:35.964Z,10.00
2017-09-10T13:57:03.780Z,9.63
2017-09-10T13:59:31.598Z,11.60
2017-09-10T14:01:59.404Z,9.80
2017-09-10T14:04:27.226Z,13.80
2017-09-10T14:06:55.025Z,8.83
2017-09-10T14:09:22.857Z,11.77
2017-09-10T14:11:50.658Z,7.80
2017-09-10T14:14:18.468Z,7.60
2017-09-10T14:16:46.278Z,9.70
2017-09-10T14:19:14.088Z,9.30
2017-09-10T14:21:41.912Z,17.67
2017-09-10T14:24:10.149Z,13.20
2017-09-10T14:26:38.119Z,14.57
2017-09-10T14:29:05.934Z,7.80
2017-09-10T14:31:33.753Z,6.97
2017-09-10T14:34:01.558Z,7.57
2017-09-10T14:36:29.371Z,7.17
2017-09-10T14:38:57.176Z,9.03
2017-09-10T14:41:25.013Z,13.03
2017-09-10T14:43:52.821Z,12.97
2017-09-10T14:46:20.616Z,9.60
2017-09-10T14:48:48.424Z,8.27
2017-09-10T14:51:16.237Z,12.50
2017-09-10T14:53:44.061Z,11.40
2017-09-10T14:56:12.072Z,10.00
2017-09-10T14:58:39.889Z,8.10
2017-09-10T15:01:07.710Z,8.43
2017-09-10T15:03:35.516Z,10.43
2017-09-10T15:06:03.331Z,8.83
2017-09-10T15:08:31.157Z,10.17
2017-09-10T15:10:58.960Z,13.10
2017-09-10T15:13:26.781Z,11.53
2017-09-10T15:15:54.609Z,12.00
2017-09-10T15:18:22.424Z,9.50
2017-09-10T15:20:50.241Z,11.17
2017-09-10T15:23:18.064Z,8.43
2017-09-10T15:25:45.860Z,6.83
2017-09-10T15:28:13.668Z,9.70
2017-09-10T15:30:41.480Z,12.83
2017-09-10T15:33:09.285Z,9.33
2017-09-10T15:35:37.097Z,6.50
2017-09-10T15:38:04.909Z,6.17
2017-09-10T15:40:32.709Z,9.17
2017-09-10T15:43:00.561Z,7.30
2017-09-10T15:45:28.405Z,6.97
2017-09-10T15:47:56.245Z,10.00
2017-09-10T15:50:24.061Z,10.63
2017-09-10T15:52:51.889Z,9.07
2017-09-10T15:55:19.724Z,8.07
2017-09-10T15:57:47.570Z,11.63
2017-09-10T16:00:15.394Z,6.20
2017-09-10T16:02:43.205Z,5.63
2017-09-10T16:05:11.329Z,7.93
2017-09-10T16:07:39.325Z,9.33
2017-09-10T16:10:08.535Z,6.27
2017-09-10T16:12:36.646Z,12.00
2017-09-10T16:15:04.917Z,6.03
2017-09-10T16:17:32.828Z,6.80
2017-09-10T16:20:00.656Z,7.60
2017-09-10T16:22:28.489Z,8.57
2017-09-10T16:24:56.327Z,9.50
2017-09-10T16:27:24.149Z,7.03
2017-09-10T16:29:51.982Z,5.40
2017-09-10T16:32:19.822Z,5.83
2017-09-10T16:34:47.644Z,9.20
2017-09-10T16:37:15.473Z,12.77
2017-09-10T16:39:43.303Z,12.00
2017-09-10T16:42:11.121Z,14.27
2017-09-10T16:44:38.933Z,8.60
2017-09-10T16:47:06.749Z,10.50
2017-09-10T16:49:34.548Z,7.00
2017-09-10T16:52:02.366Z,7.83
2017-09-10T16:54:30.160Z,5.53
2017-09-10T16:56:57.956Z,8.33
2017-09-10T16:59:25.829Z,11.40
2017-09-10T17:01:53.657Z,9.20
2017-09-10T17:04:21.480Z,13.20
2017-09-10T17:06:49.268Z,6.90
2017-09-10T17:09:17.090Z,18.07
2017-09-10T17:11:44.897Z,9.63
2017-09-10T17:14:12.705Z,7.07
2017-09-10T17:16:40.516Z,14.97
2017-09-10T17:19:08.346Z,8.63
2017-09-10T17:21:36.168Z,7.07
2017-09-10T17:24:03.984Z,9.13
2017-09-10T17:26:31.808Z,11.37
2017-09-10T17:28:59.623Z,14.50
2017-09-10T17:31:27.427Z,8.93
2017-09-10T17:33:55.227Z,6.07
2017-09-10T17:36:23.037Z,10.13
2017-09-10T17:38:50.840Z,5.50
2017-09-10T17:41:18.636Z,10.83
2017-09-10T17:43:46.447Z,7.10
2017-09-10T17:46:14.276Z,15.83
2017-09-10T17:48:42.108Z,8.60
2017-09-10T17:51:10.000Z,8.70
2017-09-10T17:53:37.853Z,12.50
2017-09-10T17:56:05.676Z,14.00
2017-09-10T17:58:33.493Z,10.30
2017-09-10T18:01:01.338Z,6.43
2017-09-10T18:03:29.169Z,10.97
2017-09-10T18:05:57.030Z,7.37
2017-09-10T18:08:24.862Z,6.60
2017-09-10T18:10:52.709Z,8.13
2017-09-10T18:13:20.532Z,12.27
2017-09-10T18:15:48.369Z,8.00
2017-09-10T18:18:16.229Z,5.40
2017-09-10T18:20:44.078Z,8.40
2017-09-10T18:23:11.922Z,7.87
2017-09-10T18:25:39.745Z,9.37
2017-09-10T18:28:07.672Z,6.10
2017-09-10T18:30:35.529Z,6.87
2017-09-10T18:33:03.360Z,9.73
2017-09-10T18:35:31.169Z,9.90
2017-09-10T18:37:58.963Z,7.03
2017-09-10T18:40:26.793Z,7.37
2017-09-10T18:42:54.624Z,9.23
2017-09-10T18:45:22.444Z,10.30
2017-09-10T18:47:50.276Z,9.13
2017-09-10T18:50:18.460Z,8.50
2017-09-10T18:52:46.345Z,8.10
2017-09-10T18:55:15.187Z,6.67
2017-09-10T18:57:43.038Z,7.27
2017-09-10T19:00:10.845Z,10.60
2017-09-10T19:02:38.673Z,8.97
2017-09-10T19:05:06.517Z,6.20
2017-09-10T19:07:34.365Z,11.40
2017-09-10T19:10:02.219Z,9.50
2017-09-10T19:12:30.080Z,11.70
2017-09-10T19:14:57.933Z,5.77
2017-09-10T19:17:25.788Z,6.77
2017-09-10T19:19:53.629Z,18.90
2017-09-10T19:22:21.465Z,10.27
2017-09-10T19:24:49.312Z,7.67
2017-09-10T19:27:18.207Z,6.03
2017-09-10T19:29:46.062Z,9.90
2017-09-10T19:32:13.921Z,6.83
2017-09-10T19:34:41.790Z,8.23
2017-09-10T19:37:09.653Z,6.77
2017-09-10T19:39:37.489Z,7.80
2017-09-10T19:42:05.337Z,8.10
2017-09-10T19:44:33.160Z,7.30
2017-09-10T19:47:01.012Z,5.10
2017-09-10T19:49:28.833Z,10.90
2017-09-10T19:51:56.664Z,8.07
2017-09-10T19:54:24.509Z,7.83
2017-09-10T19:56:52.349Z,6.57
2017-09-10T19:59:20.197Z,9.60
2017-09-10T20:01:48.285Z,6.47
2017-09-10T20:04:16.135Z,7.00
2017-09-10T20:06:43.990Z,8.77
2017-09-10T20:09:11.840Z,6.90
2017-09-10T20:11:39.663Z,6.30
2017-09-10T20:14:07.542Z,6.27
2017-09-10T20:16:35.399Z,6.37
2017-09-10T20:19:03.859Z,9.37
2017-09-10T20:21:31.777Z,6.73
2017-09-10T20:23:59.653Z,6.87
2017-09-10T20:26:27.490Z,5.70
2017-09-10T20:28:55.876Z,6.80
2017-09-10T20:31:23.745Z,6.57
2017-09-10T20:33:51.555Z,9.17
2017-09-10T20:36:19.412Z,8.87
2017-09-10T20:38:47.254Z,10.07
2017-09-10T20:41:15.076Z,6.10
2017-09-10T20:43:42.929Z,5.50
2017-09-10T20:46:10.757Z,7.50
2017-09-10T20:48:38.595Z,7.30
2017-09-10T20:51:06.425Z,7.30
2017-09-10T20:53:34.237Z,7.67
2017-09-10T20:56:02.084Z,7.47
2017-09-10T20:58:29.952Z,6.47
2017-09-10T21:00:57.764Z,11.97
2017-09-10T21:03:25.581Z,6.40
2017-09-10T21:05:53.419Z,8.07
2017-09-10T21:08:21.238Z,5.70
2017-09-10T21:10:49.054Z,10.50
2017-09-10T21:13:16.885Z,10.13
2017-09-10T21:15:44.726Z,6.93
2017-09-10T21:18:12.565Z,5.13
2017-09-10T21:20:40.401Z,6.37
2017-09-10T21:23:08.240Z,5.90
2017-09-10T21:25:36.101Z,9.83
2017-09-10T21:28:03.921Z,5.13
2017-09-10T21:30:31.738Z,5.20
2017-09-10T21:32:59.566Z,5.87
2017-09-10T21:35:27.413Z,9.00
2017-09-10T21:37:55.229Z,11.73
2017-09-10T21:40:24.093Z,7.37
2017-09-10T21:42:51.928Z,8.20
2017-09-10T21:45:19.753Z,6.40
2017-09-10T21:47:47.592Z,6.73
2017-09-10T21:50:15.405Z,5.30
2017-09-10T21:52:43.272Z,4.40
2017-09-10T21:55:11.113Z,4.53
2017-09-10T21:57:38.919Z,6.50
2017-09-10T22:00:06.768Z,7.70
2017-09-10T22:02:34.597Z,6.50
2017-09-10T22:05:02.434Z,5.43
2017-09-10T22:07:30.261Z,3.50
2017-09-10T22:09:58.079Z,4.43
2017-09-10T22:12:25.909Z,6.30
2017-09-10T22:14:53.732Z,5.70
2017-09-10T22:17:21.565Z,3.80
2017-09-10T22:19:49.364Z,7.20
2017-09-10T22:22:17.180Z,4.70
2017-09-10T22:24:44.991Z,4.57
2017-09-10T22:27:12.809Z,6.80
2017-09-10T22:29:40.641Z,6.57
2017-09-10T22:32:08.454Z,6.50
2017-09-10T22:34:36.269Z,7.37
2017-09-10T22:37:04.088Z,11.50
2017-09-10T22:39:31.897Z,6.47
2017-09-10T22:41:59.699Z,6.20
2017-09-10T22:44:27.541Z,4.50
2017-09-10T22:46:55.416Z,3.60
2017-09-10T22:49:23.265Z,9.23
2017-09-10T22:51:51.080Z,6.50
2017-09-10T22:54:18.892Z,7.53
2017-09-10T22:56:46.704Z,4.00
2017-09-10T22:59:14.504Z,4.10
2017-09-10T23:01:42.317Z,4.70
2017-09-10T23:04:10.170Z,4.50
2017-09-10T23:06:38.013Z,5.43
2017-09-10T23:09:05.857Z,6.67
2017-09-10T23:11:33.684Z,3.50
2017-09-10T23:14:01.534Z,3.83
2017-09-10T23:16:29.384Z,6.23
2017-09-10T23:18:57.196Z,7.43
2017-09-10T23:21:25.023Z,7.93
2017-09-10T23:23:52.865Z,8.00
2017-09-10T23:26:20.689Z,5.50
2017-09-10T23:28:48.528Z,3.67
2017-09-10T23:31:16.405Z,6.80
2017-09-10T23:33:44.230Z,5.10
2017-09-10T23:36:12.072Z,6.07
2017-09-10T23:38:39.905Z,3.60
2017-09-10T23:41:07.746Z,6.50
2017-09-10T23:43:35.610Z,4.30
2017-09-10T23:46:03.433Z,5.83
2017-09-10T23:48:31.269Z,8.80
2017-09-10T23:50:59.107Z,6.20
2017-09-10T23:53:26.928Z,7.73
2017-09-10T23:55:54.734Z,5.50
2017-09-10T23:58:22.557Z,3.43
